sensor_id;sensor_type;location;lat;lon;timestamp;P1;durP1;ratioP1;P2;durP2;ratioP2
73563;SDS011;61834;50.196;6.454;2022-09-16T00:00:12;3.10;;;1.63;;
73563;SDS011;61834;50.196;6.454;2022-09-16T00:02:38;3.33;;;2.00;;
73563;SDS011;61834;50.196;6.454;2022-09-16T00:05:03;2.03;;;1.38;;
73563;SDS011;61834;50.196;6.454;2022-09-16T00:07:29;2.65;;;1.50;;
73563;SDS011;61834;50.196;6.454;2022-09-16T00:09:54;2.40;;;1.40;;
73563;SDS011;61834;50.196;6.454;2022-09-16T00:12:20;2.58;;;1.65;;
73563;SDS011;61834;50.196;6.454;2022-09-16T00:14:46;2.47;;;1.50;;
73563;SDS011;61834;50.196;6.454;2022-09-16T00:17:11;2.72;;;1.30;;
73563;SDS011;61834;50.196;6.454;2022-09-16T00:19:36;2.83;;;1.27;;
73563;SDS011;61834;50.196;6.454;2022-09-16T00:22:02;2.90;;;1.55;;
73563;SDS011;61834;50.196;6.454;2022-09-16T00:24:27;1.40;;;1.25;;
73563;SDS011;61834;50.196;6.454;2022-09-16T00:26:53;3.92;;;1.80;;
73563;SDS011;61834;50.196;6.454;2022-09-16T00:29:19;1.98;;;1.50;;
73563;SDS011;61834;50.196;6.454;2022-09-16T00:31:44;2.38;;;1.60;;
73563;SDS011;61834;50.196;6.454;2022-09-16T00:34:09;2.13;;;1.48;;
73563;SDS011;61834;50.196;6.454;2022-09-16T00:36:35;2.83;;;1.70;;
73563;SDS011;61834;50.196;6.454;2022-09-16T00:39:00;2.80;;;1.67;;
73563;SDS011;61834;50.196;6.454;2022-09-16T00:41:26;2.30;;;1.50;;
73563;SDS011;61834;50.196;6.454;2022-09-16T00:43:58;3.75;;;1.30;;
73563;SDS011;61834;50.196;6.454;2022-09-16T00:46:28;3.72;;;1.70;;
73563;SDS011;61834;50.196;6.454;2022-09-16T00:49:00;3.63;;;1.37;;
73563;SDS011;61834;50.196;6.454;2022-09-16T00:51:28;1.92;;;1.40;;
73563;SDS011;61834;50.196;6.454;2022-09-16T00:53:54;3.00;;;1.45;;
73563;SDS011;61834;50.196;6.454;2022-09-16T00:56:26;2.05;;;1.10;;
73563;SDS011;61834;50.196;6.454;2022-09-16T00:58:55;2.50;;;1.40;;
73563;SDS011;61834;50.196;6.454;2022-09-16T01:01:29;2.70;;;1.92;;
73563;SDS011;61834;50.196;6.454;2022-09-16T01:03:57;3.33;;;1.25;;
73563;SDS011;61834;50.196;6.454;2022-09-16T01:06:25;2.22;;;1.17;;
73563;SDS011;61834;50.196;6.454;2022-09-16T01:08:52;2.00;;;1.40;;
73563;SDS011;61834;50.196;6.454;2022-09-16T01:11:19;2.08;;;1.42;;
73563;SDS011;61834;50.196;6.454;2022-09-16T01:13:45;1.65;;;1.27;;
73563;SDS011;61834;50.196;6.454;2022-09-16T01:16:23;2.85;;;1.27;;
73563;SDS011;61834;50.196;6.454;2022-09-16T01:19:04;3.50;;;1.60;;
73563;SDS011;61834;50.196;6.454;2022-09-16T01:22:01;2.60;;;1.35;;
73563;SDS011;61834;50.196;6.454;2022-09-16T01:24:47;2.40;;;1.38;;
73563;SDS011;61834;50.196;6.454;2022-09-16T01:27:20;2.83;;;1.60;;
73563;SDS011;61834;50.196;6.454;2022-09-16T01:30:16;3.08;;;1.33;;
73563;SDS011;61834;50.196;6.454;2022-09-16T01:38:08;2.75;;;1.33;;
73563;SDS011;61834;50.196;6.454;2022-09-16T01:48:39;3.20;;;1.20;;
73563;SDS011;61834;50.196;6.454;2022-09-16T01:51:13;1.60;;;1.17;;
73563;SDS011;61834;50.196;6.454;2022-09-16T01:56:36;2.25;;;1.40;;
73563;SDS011;61834;50.196;6.454;2022-09-16T01:59:08;1.48;;;1.17;;
73563;SDS011;61834;50.196;6.454;2022-09-16T02:01:39;2.95;;;1.30;;
73563;SDS011;61834;50.196;6.454;2022-09-16T02:04:14;1.63;;;1.02;;
73563;SDS011;61834;50.196;6.454;2022-09-16T02:06:43;1.83;;;1.27;;
73563;SDS011;61834;50.196;6.454;2022-09-16T02:09:13;2.53;;;1.23;;
73563;SDS011;61834;50.196;6.454;2022-09-16T02:11:42;2.05;;;1.20;;
73563;SDS011;61834;50.196;6.454;2022-09-16T02:14:15;3.03;;;1.30;;
73563;SDS011;61834;50.196;6.454;2022-09-16T02:19:21;1.73;;;1.17;;
73563;SDS011;61834;50.196;6.454;2022-09-16T02:21:51;2.33;;;1.23;;
73563;SDS011;61834;50.196;6.454;2022-09-16T02:24:19;1.65;;;1.02;;
73563;SDS011;61834;50.196;6.454;2022-09-16T02:26:47;2.60;;;1.48;;
73563;SDS011;61834;50.196;6.454;2022-09-16T02:29:19;2.85;;;1.40;;
73563;SDS011;61834;50.196;6.454;2022-09-16T02:31:48;2.70;;;1.30;;
73563;SDS011;61834;50.196;6.454;2022-09-16T02:34:21;2.47;;;1.38;;
73563;SDS011;61834;50.196;6.454;2022-09-16T02:36:56;2.75;;;1.33;;
73563;SDS011;61834;50.196;6.454;2022-09-16T02:39:28;2.03;;;1.20;;
73563;SDS011;61834;50.196;6.454;2022-09-16T02:41:58;3.90;;;1.10;;
73563;SDS011;61834;50.196;6.454;2022-09-16T02:44:24;2.65;;;1.25;;
73563;SDS011;61834;50.196;6.454;2022-09-16T02:54:47;1.63;;;1.10;;
73563;SDS011;61834;50.196;6.454;2022-09-16T02:57:17;1.95;;;1.05;;
73563;SDS011;61834;50.196;6.454;2022-09-16T02:59:43;1.92;;;1.20;;
73563;SDS011;61834;50.196;6.454;2022-09-16T03:02:09;1.45;;;1.00;;
73563;SDS011;61834;50.196;6.454;2022-09-16T03:04:35;2.17;;;1.20;;
73563;SDS011;61834;50.196;6.454;2022-09-16T03:07:02;1.10;;;0.80;;
73563;SDS011;61834;50.196;6.454;2022-09-16T03:09:29;1.55;;;1.00;;
73563;SDS011;61834;50.196;6.454;2022-09-16T03:20:20;1.30;;;1.00;;
73563;SDS011;61834;50.196;6.454;2022-09-16T03:28:42;2.47;;;1.25;;
73563;SDS011;61834;50.196;6.454;2022-09-16T03:33:56;2.28;;;1.25;;
73563;SDS011;61834;50.196;6.454;2022-09-16T03:36:32;1.90;;;1.20;;
73563;SDS011;61834;50.196;6.454;2022-09-16T03:39:01;1.67;;;1.30;;
73563;SDS011;61834;50.196;6.454;2022-09-16T03:41:28;1.58;;;1.10;;
73563;SDS011;61834;50.196;6.454;2022-09-16T03:43:57;4.07;;;1.20;;
73563;SDS011;61834;50.196;6.454;2022-09-16T03:46:24;2.33;;;0.95;;
73563;SDS011;61834;50.196;6.454;2022-09-16T03:48:50;2.03;;;1.10;;
73563;SDS011;61834;50.196;6.454;2022-09-16T03:51:16;1.38;;;1.10;;
73563;SDS011;61834;50.196;6.454;2022-09-16T03:53:42;2.25;;;1.25;;
73563;SDS011;61834;50.196;6.454;2022-09-16T03:56:07;3.88;;;1.35;;
73563;SDS011;61834;50.196;6.454;2022-09-16T03:58:32;1.92;;;1.10;;
73563;SDS011;61834;50.196;6.454;2022-09-16T04:00:58;2.08;;;1.23;;
73563;SDS011;61834;50.196;6.454;2022-09-16T04:03:23;2.03;;;1.10;;
73563;SDS011;61834;50.196;6.454;2022-09-16T04:05:52;1.70;;;1.00;;
73563;SDS011;61834;50.196;6.454;2022-09-16T04:08:18;2.70;;;1.00;;
73563;SDS011;61834;50.196;6.454;2022-09-16T04:11:00;2.33;;;1.15;;
73563;SDS011;61834;50.196;6.454;2022-09-16T04:13:29;2.92;;;1.20;;
73563;SDS011;61834;50.196;6.454;2022-09-16T04:15:55;2.10;;;1.10;;
73563;SDS011;61834;50.196;6.454;2022-09-16T04:18:21;1.98;;;1.00;;
73563;SDS011;61834;50.196;6.454;2022-09-16T04:20:46;2.22;;;0.90;;
73563;SDS011;61834;50.196;6.454;2022-09-16T04:23:11;3.65;;;1.10;;
73563;SDS011;61834;50.196;6.454;2022-09-16T04:25:37;2.13;;;1.10;;
73563;SDS011;61834;50.196;6.454;2022-09-16T04:28:02;2.65;;;1.50;;
73563;SDS011;61834;50.196;6.454;2022-09-16T04:30:28;3.58;;;1.40;;
73563;SDS011;61834;50.196;6.454;2022-09-16T04:32:54;1.90;;;0.90;;
73563;SDS011;61834;50.196;6.454;2022-09-16T04:35:20;2.08;;;0.93;;
73563;SDS011;61834;50.196;6.454;2022-09-16T04:37:45;3.13;;;1.13;;
73563;SDS011;61834;50.196;6.454;2022-09-16T04:40:11;3.28;;;1.30;;
73563;SDS011;61834;50.196;6.454;2022-09-16T04:42:36;2.05;;;1.13;;
73563;SDS011;61834;50.196;6.454;2022-09-16T04:45:01;2.55;;;1.20;;
73563;SDS011;61834;50.196;6.454;2022-09-16T04:47:27;2.95;;;1.20;;
73563;SDS011;61834;50.196;6.454;2022-09-16T04:49:53;2.10;;;1.05;;
73563;SDS011;61834;50.196;6.454;2022-09-16T04:52:18;1.20;;;0.75;;
73563;SDS011;61834;50.196;6.454;2022-09-16T04:54:44;1.52;;;0.93;;
73563;SDS011;61834;50.196;6.454;2022-09-16T04:57:09;2.42;;;1.10;;
73563;SDS011;61834;50.196;6.454;2022-09-16T04:59:34;2.63;;;1.33;;
73563;SDS011;61834;50.196;6.454;2022-09-16T05:02:00;3.15;;;1.30;;
73563;SDS011;61834;50.196;6.454;2022-09-16T05:04:25;1.40;;;1.10;;
73563;SDS011;61834;50.196;6.454;2022-09-16T05:06:50;2.50;;;0.98;;
73563;SDS011;61834;50.196;6.454;2022-09-16T05:09:16;2.42;;;1.20;;
73563;SDS011;61834;50.196;6.454;2022-09-16T05:11:41;2.03;;;1.00;;
73563;SDS011;61834;50.196;6.454;2022-09-16T05:14:07;1.45;;;0.95;;
73563;SDS011;61834;50.196;6.454;2022-09-16T05:16:37;2.00;;;1.10;;
73563;SDS011;61834;50.196;6.454;2022-09-16T05:19:02;1.80;;;0.90;;
73563;SDS011;61834;50.196;6.454;2022-09-16T05:21:29;3.38;;;1.10;;
73563;SDS011;61834;50.196;6.454;2022-09-16T05:23:58;2.25;;;0.90;;
73563;SDS011;61834;50.196;6.454;2022-09-16T05:26:25;2.13;;;1.15;;
73563;SDS011;61834;50.196;6.454;2022-09-16T05:28:52;3.85;;;1.45;;
73563;SDS011;61834;50.196;6.454;2022-09-16T05:31:18;2.83;;;1.20;;
73563;SDS011;61834;50.196;6.454;2022-09-16T05:33:56;2.17;;;1.05;;
73563;SDS011;61834;50.196;6.454;2022-09-16T05:36:22;2.00;;;1.00;;
73563;SDS011;61834;50.196;6.454;2022-09-16T05:38:48;1.48;;;0.70;;
73563;SDS011;61834;50.196;6.454;2022-09-16T05:41:14;1.60;;;0.85;;
73563;SDS011;61834;50.196;6.454;2022-09-16T05:43:39;1.40;;;0.90;;
73563;SDS011;61834;50.196;6.454;2022-09-16T05:46:05;4.88;;;1.10;;
73563;SDS011;61834;50.196;6.454;2022-09-16T05:48:31;1.30;;;0.82;;
73563;SDS011;61834;50.196;6.454;2022-09-16T05:50:58;1.25;;;1.00;;
73563;SDS011;61834;50.196;6.454;2022-09-16T05:53:31;3.17;;;1.00;;
73563;SDS011;61834;50.196;6.454;2022-09-16T05:55:58;1.65;;;1.10;;
73563;SDS011;61834;50.196;6.454;2022-09-16T05:58:26;1.27;;;0.90;;
73563;SDS011;61834;50.196;6.454;2022-09-16T06:00:57;2.45;;;0.80;;
73563;SDS011;61834;50.196;6.454;2022-09-16T06:03:30;1.13;;;0.93;;
73563;SDS011;61834;50.196;6.454;2022-09-16T06:06:02;1.85;;;1.00;;
73563;SDS011;61834;50.196;6.454;2022-09-16T06:08:36;1.70;;;1.00;;
73563;SDS011;61834;50.196;6.454;2022-09-16T06:11:03;2.33;;;1.13;;
73563;SDS011;61834;50.196;6.454;2022-09-16T06:13:30;3.10;;;1.33;;
73563;SDS011;61834;50.196;6.454;2022-09-16T06:15:55;1.38;;;0.90;;
73563;SDS011;61834;50.196;6.454;2022-09-16T06:18:22;2.00;;;0.95;;
73563;SDS011;61834;50.196;6.454;2022-09-16T06:20:49;2.55;;;1.10;;
73563;SDS011;61834;50.196;6.454;2022-09-16T06:23:15;1.05;;;0.70;;
73563;SDS011;61834;50.196;6.454;2022-09-16T06:25:41;1.70;;;1.00;;
73563;SDS011;61834;50.196;6.454;2022-09-16T06:28:06;3.47;;;1.10;;
73563;SDS011;61834;50.196;6.454;2022-09-16T06:30:34;2.05;;;1.02;;
73563;SDS011;61834;50.196;6.454;2022-09-16T06:32:59;3.60;;;1.05;;
73563;SDS011;61834;50.196;6.454;2022-09-16T06:35:25;2.85;;;1.02;;
73563;SDS011;61834;50.196;6.454;2022-09-16T06:37:50;1.05;;;0.95;;
73563;SDS011;61834;50.196;6.454;2022-09-16T06:40:15;1.70;;;0.82;;
73563;SDS011;61834;50.196;6.454;2022-09-16T06:42:41;4.30;;;1.23;;
73563;SDS011;61834;50.196;6.454;2022-09-16T06:45:06;1.65;;;1.08;;
73563;SDS011;61834;50.196;6.454;2022-09-16T06:47:32;1.75;;;0.80;;
73563;SDS011;61834;50.196;6.454;2022-09-16T06:50:01;2.08;;;1.05;;
73563;SDS011;61834;50.196;6.454;2022-09-16T06:52:28;1.77;;;1.00;;
73563;SDS011;61834;50.196;6.454;2022-09-16T06:54:54;1.80;;;1.10;;
73563;SDS011;61834;50.196;6.454;2022-09-16T06:57:19;1.85;;;0.93;;
73563;SDS011;61834;50.196;6.454;2022-09-16T06:59:47;1.50;;;0.95;;
73563;SDS011;61834;50.196;6.454;2022-09-16T07:02:15;1.73;;;1.15;;
73563;SDS011;61834;50.196;6.454;2022-09-16T07:04:41;4.05;;;1.10;;
73563;SDS011;61834;50.196;6.454;2022-09-16T07:07:07;2.13;;;0.98;;
73563;SDS011;61834;50.196;6.454;2022-09-16T07:09:32;1.73;;;1.17;;
73563;SDS011;61834;50.196;6.454;2022-09-16T07:11:58;1.73;;;0.90;;
73563;SDS011;61834;50.196;6.454;2022-09-16T07:14:24;1.58;;;0.93;;
73563;SDS011;61834;50.196;6.454;2022-09-16T07:16:50;1.98;;;0.90;;
73563;SDS011;61834;50.196;6.454;2022-09-16T07:19:16;2.50;;;1.33;;
73563;SDS011;61834;50.196;6.454;2022-09-16T07:21:42;2.50;;;1.23;;
73563;SDS011;61834;50.196;6.454;2022-09-16T07:24:08;2.28;;;0.90;;
73563;SDS011;61834;50.196;6.454;2022-09-16T07:26:36;1.33;;;0.90;;
73563;SDS011;61834;50.196;6.454;2022-09-16T07:29:05;2.67;;;0.80;;
73563;SDS011;61834;50.196;6.454;2022-09-16T07:31:33;2.03;;;0.93;;
73563;SDS011;61834;50.196;6.454;2022-09-16T07:34:01;1.35;;;0.80;;
73563;SDS011;61834;50.196;6.454;2022-09-16T07:36:28;1.45;;;0.90;;
73563;SDS011;61834;50.196;6.454;2022-09-16T07:38:57;3.15;;;0.90;;
73563;SDS011;61834;50.196;6.454;2022-09-16T07:41:24;1.70;;;0.95;;
73563;SDS011;61834;50.196;6.454;2022-09-16T07:43:52;3.10;;;0.80;;
73563;SDS011;61834;50.196;6.454;2022-09-16T07:46:18;1.67;;;0.90;;
73563;SDS011;61834;50.196;6.454;2022-09-16T07:48:46;1.40;;;0.70;;
73563;SDS011;61834;50.196;6.454;2022-09-16T07:51:16;1.38;;;0.90;;
73563;SDS011;61834;50.196;6.454;2022-09-16T07:53:44;2.63;;;1.00;;
73563;SDS011;61834;50.196;6.454;2022-09-16T07:56:11;1.42;;;0.70;;
73563;SDS011;61834;50.196;6.454;2022-09-16T07:58:39;1.67;;;0.80;;
73563;SDS011;61834;50.196;6.454;2022-09-16T08:01:05;3.03;;;1.02;;
73563;SDS011;61834;50.196;6.454;2022-09-16T08:03:32;1.77;;;0.75;;
73563;SDS011;61834;50.196;6.454;2022-09-16T08:06:03;1.77;;;0.70;;
73563;SDS011;61834;50.196;6.454;2022-09-16T08:08:30;1.75;;;0.77;;
73563;SDS011;61834;50.196;6.454;2022-09-16T08:10:55;3.13;;;0.63;;
73563;SDS011;61834;50.196;6.454;2022-09-16T08:13:22;1.65;;;0.90;;
73563;SDS011;61834;50.196;6.454;2022-09-16T08:15:47;1.20;;;0.75;;
73563;SDS011;61834;50.196;6.454;2022-09-16T08:18:13;3.13;;;0.82;;
73563;SDS011;61834;50.196;6.454;2022-09-16T08:20:38;2.03;;;0.82;;
73563;SDS011;61834;50.196;6.454;2022-09-16T08:23:04;1.60;;;0.75;;
73563;SDS011;61834;50.196;6.454;2022-09-16T08:25:29;1.73;;;0.80;;
73563;SDS011;61834;50.196;6.454;2022-09-16T08:27:54;1.33;;;1.00;;
73563;SDS011;61834;50.196;6.454;2022-09-16T08:30:20;1.35;;;0.70;;
73563;SDS011;61834;50.196;6.454;2022-09-16T08:32:45;1.83;;;1.00;;
73563;SDS011;61834;50.196;6.454;2022-09-16T08:35:11;3.08;;;0.90;;
73563;SDS011;61834;50.196;6.454;2022-09-16T08:37:38;2.20;;;0.88;;
73563;SDS011;61834;50.196;6.454;2022-09-16T08:40:05;2.58;;;0.80;;
73563;SDS011;61834;50.196;6.454;2022-09-16T08:42:52;2.50;;;0.93;;
73563;SDS011;61834;50.196;6.454;2022-09-16T08:50:40;1.40;;;0.85;;
73563;SDS011;61834;50.196;6.454;2022-09-16T08:53:14;3.47;;;0.88;;
73563;SDS011;61834;50.196;6.454;2022-09-16T08:55:41;1.23;;;0.70;;
73563;SDS011;61834;50.196;6.454;2022-09-16T08:58:22;1.75;;;0.80;;
73563;SDS011;61834;50.196;6.454;2022-09-16T09:00:55;1.10;;;0.73;;
73563;SDS011;61834;50.196;6.454;2022-09-16T09:05:58;1.73;;;0.70;;
73563;SDS011;61834;50.196;6.454;2022-09-16T09:10:53;2.73;;;0.70;;
73563;SDS011;61834;50.196;6.454;2022-09-16T09:16:31;0.85;;;0.60;;
73563;SDS011;61834;50.196;6.454;2022-09-16T09:24:57;2.45;;;0.80;;
73563;SDS011;61834;50.196;6.454;2022-09-16T09:27:36;1.80;;;0.80;;
73563;SDS011;61834;50.196;6.454;2022-09-16T09:30:21;0.50;;;0.45;;
73563;SDS011;61834;50.196;6.454;2022-09-16T09:35:33;1.38;;;0.70;;
73563;SDS011;61834;50.196;6.454;2022-09-16T09:43:22;1.67;;;0.70;;
73563;SDS011;61834;50.196;6.454;2022-09-16T09:46:11;0.90;;;0.47;;
73563;SDS011;61834;50.196;6.454;2022-09-16T09:48:45;1.17;;;0.60;;
73563;SDS011;61834;50.196;6.454;2022-09-16T09:54:12;1.45;;;0.60;;
73563;SDS011;61834;50.196;6.454;2022-09-16T09:56:47;1.45;;;0.50;;
73563;SDS011;61834;50.196;6.454;2022-09-16T09:59:21;0.93;;;0.60;;
73563;SDS011;61834;50.196;6.454;2022-09-16T10:01:57;1.45;;;0.60;;
73563;SDS011;61834;50.196;6.454;2022-09-16T10:04:25;1.55;;;0.80;;
73563;SDS011;61834;50.196;6.454;2022-09-16T10:06:55;3.65;;;1.00;;
73563;SDS011;61834;50.196;6.454;2022-09-16T10:09:22;0.60;;;0.50;;
73563;SDS011;61834;50.196;6.454;2022-09-16T10:11:55;2.38;;;0.73;;
73563;SDS011;61834;50.196;6.454;2022-09-16T10:14:31;1.83;;;0.70;;
73563;SDS011;61834;50.196;6.454;2022-09-16T10:17:02;0.95;;;0.68;;
73563;SDS011;61834;50.196;6.454;2022-09-16T10:19:37;0.75;;;0.50;;
73563;SDS011;61834;50.196;6.454;2022-09-16T10:22:28;1.48;;;0.70;;
73563;SDS011;61834;50.196;6.454;2022-09-16T10:25:20;1.10;;;0.60;;
73563;SDS011;61834;50.196;6.454;2022-09-16T10:27:55;1.95;;;0.65;;
73563;SDS011;61834;50.196;6.454;2022-09-16T10:30:24;1.63;;;0.75;;
73563;SDS011;61834;50.196;6.454;2022-09-16T10:35:38;0.73;;;0.40;;
73563;SDS011;61834;50.196;6.454;2022-09-16T10:38:15;1.45;;;0.65;;
73563;SDS011;61834;50.196;6.454;2022-09-16T10:40:50;1.33;;;0.63;;
73563;SDS011;61834;50.196;6.454;2022-09-16T10:43:17;2.65;;;0.60;;
73563;SDS011;61834;50.196;6.454;2022-09-16T10:45:46;1.05;;;0.50;;
73563;SDS011;61834;50.196;6.454;2022-09-16T10:48:15;0.57;;;0.50;;
73563;SDS011;61834;50.196;6.454;2022-09-16T10:51:00;2.50;;;0.60;;
73563;SDS011;61834;50.196;6.454;2022-09-16T10:53:37;1.35;;;0.60;;
73563;SDS011;61834;50.196;6.454;2022-09-16T10:56:18;1.13;;;0.60;;
73563;SDS011;61834;50.196;6.454;2022-09-16T10:58:46;0.90;;;0.57;;
73563;SDS011;61834;50.196;6.454;2022-09-16T11:09:16;2.40;;;0.50;;
73563;SDS011;61834;50.196;6.454;2022-09-16T11:15:00;3.17;;;0.75;;
73563;SDS011;61834;50.196;6.454;2022-09-16T11:20:22;0.98;;;0.57;;
73563;SDS011;61834;50.196;6.454;2022-09-16T11:23:04;0.70;;;0.45;;
73563;SDS011;61834;50.196;6.454;2022-09-16T11:34:27;0.50;;;0.50;;
73563;SDS011;61834;50.196;6.454;2022-09-16T11:37:19;0.65;;;0.45;;
73563;SDS011;61834;50.196;6.454;2022-09-16T11:42:38;1.77;;;0.70;;
73563;SDS011;61834;50.196;6.454;2022-09-16T11:47:43;1.58;;;0.75;;
73563;SDS011;61834;50.196;6.454;2022-09-16T11:56:06;1.40;;;0.68;;
73563;SDS011;61834;50.196;6.454;2022-09-16T11:58:51;1.25;;;0.45;;
73563;SDS011;61834;50.196;6.454;2022-09-16T12:09:44;0.68;;;0.40;;
73563;SDS011;61834;50.196;6.454;2022-09-16T12:12:17;0.95;;;0.75;;
73563;SDS011;61834;50.196;6.454;2022-09-16T12:14:51;0.80;;;0.50;;
73563;SDS011;61834;50.196;6.454;2022-09-16T12:17:24;0.95;;;0.50;;
73563;SDS011;61834;50.196;6.454;2022-09-16T12:19:54;0.50;;;0.50;;
73563;SDS011;61834;50.196;6.454;2022-09-16T12:22:31;1.67;;;0.68;;
73563;SDS011;61834;50.196;6.454;2022-09-16T12:25:12;1.15;;;0.63;;
73563;SDS011;61834;50.196;6.454;2022-09-16T12:30:26;0.50;;;0.50;;
73563;SDS011;61834;50.196;6.454;2022-09-16T12:35:52;1.17;;;0.50;;
73563;SDS011;61834;50.196;6.454;2022-09-16T12:38:21;0.50;;;0.50;;
73563;SDS011;61834;50.196;6.454;2022-09-16T12:41:00;1.85;;;0.60;;
73563;SDS011;61834;50.196;6.454;2022-09-16T13:00:16;1.35;;;0.50;;
73563;SDS011;61834;50.196;6.454;2022-09-16T13:05:16;1.42;;;0.50;;
73563;SDS011;61834;50.196;6.454;2022-09-16T13:07:47;0.98;;;0.50;;
73563;SDS011;61834;50.196;6.454;2022-09-16T13:12:57;1.02;;;0.70;;
73563;SDS011;61834;50.196;6.454;2022-09-16T13:15:28;1.45;;;0.70;;
73563;SDS011;61834;50.196;6.454;2022-09-16T13:20:40;1.17;;;0.50;;
73563;SDS011;61834;50.196;6.454;2022-09-16T13:23:17;0.57;;;0.50;;
73563;SDS011;61834;50.196;6.454;2022-09-16T13:26:03;1.45;;;0.70;;
73563;SDS011;61834;50.196;6.454;2022-09-16T13:33:41;1.33;;;0.60;;
73563;SDS011;61834;50.196;6.454;2022-09-16T13:36:29;1.42;;;0.60;;
73563;SDS011;61834;50.196;6.454;2022-09-16T13:38:55;0.40;;;0.40;;
73563;SDS011;61834;50.196;6.454;2022-09-16T13:41:38;0.63;;;0.40;;
73563;SDS011;61834;50.196;6.454;2022-09-16T13:47:16;0.73;;;0.50;;
73563;SDS011;61834;50.196;6.454;2022-09-16T13:49:53;0.60;;;0.40;;
73563;SDS011;61834;50.196;6.454;2022-09-16T13:52:33;1.13;;;0.80;;
73563;SDS011;61834;50.196;6.454;2022-09-16T13:55:04;1.38;;;0.70;;
73563;SDS011;61834;50.196;6.454;2022-09-16T14:00:18;0.68;;;0.45;;
73563;SDS011;61834;50.196;6.454;2022-09-16T14:02:53;1.38;;;0.60;;
73563;SDS011;61834;50.196;6.454;2022-09-16T14:11:15;0.82;;;0.50;;
73563;SDS011;61834;50.196;6.454;2022-09-16T14:14:01;0.93;;;0.50;;
73563;SDS011;61834;50.196;6.454;2022-09-16T14:16:31;0.80;;;0.60;;
73563;SDS011;61834;50.196;6.454;2022-09-16T14:21:58;2.25;;;0.57;;
73563;SDS011;61834;50.196;6.454;2022-09-16T14:24:41;1.73;;;0.60;;
73563;SDS011;61834;50.196;6.454;2022-09-16T14:30:01;1.15;;;0.43;;
73563;SDS011;61834;50.196;6.454;2022-09-16T14:32:37;0.60;;;0.45;;
73563;SDS011;61834;50.196;6.454;2022-09-16T14:35:07;1.45;;;0.50;;
73563;SDS011;61834;50.196;6.454;2022-09-16T14:37:35;1.67;;;0.50;;
73563;SDS011;61834;50.196;6.454;2022-09-16T14:40:05;1.02;;;0.45;;
73563;SDS011;61834;50.196;6.454;2022-09-16T14:42:36;0.43;;;0.40;;
73563;SDS011;61834;50.196;6.454;2022-09-16T14:45:12;0.93;;;0.50;;
73563;SDS011;61834;50.196;6.454;2022-09-16T14:47:40;0.52;;;0.30;;
73563;SDS011;61834;50.196;6.454;2022-09-16T14:50:15;0.50;;;0.50;;
73563;SDS011;61834;50.196;6.454;2022-09-16T14:52:57;2.03;;;0.40;;
73563;SDS011;61834;50.196;6.454;2022-09-16T14:55:27;1.60;;;0.40;;
73563;SDS011;61834;50.196;6.454;2022-09-16T14:57:55;1.45;;;0.40;;
73563;SDS011;61834;50.196;6.454;2022-09-16T15:00:24;0.88;;;0.43;;
73563;SDS011;61834;50.196;6.454;2022-09-16T15:02:59;0.95;;;0.50;;
73563;SDS011;61834;50.196;6.454;2022-09-16T15:05:37;1.02;;;0.60;;
73563;SDS011;61834;50.196;6.454;2022-09-16T15:10:39;0.68;;;0.40;;
73563;SDS011;61834;50.196;6.454;2022-09-16T15:13:08;0.38;;;0.38;;
73563;SDS011;61834;50.196;6.454;2022-09-16T15:15:36;0.82;;;0.40;;
73563;SDS011;61834;50.196;6.454;2022-09-16T15:18:11;0.47;;;0.40;;
73563;SDS011;61834;50.196;6.454;2022-09-16T15:20:48;0.70;;;0.60;;
73563;SDS011;61834;50.196;6.454;2022-09-16T15:23:24;0.60;;;0.40;;
73563;SDS011;61834;50.196;6.454;2022-09-16T15:25:52;1.23;;;0.40;;
73563;SDS011;61834;50.196;6.454;2022-09-16T15:28:21;0.40;;;0.40;;
73563;SDS011;61834;50.196;6.454;2022-09-16T15:30:47;0.32;;;0.30;;
73563;SDS011;61834;50.196;6.454;2022-09-16T19:40:13;0.82;;;0.50;;
73563;SDS011;61834;50.196;6.454;2022-09-16T19:42:39;2.05;;;0.60;;
73563;SDS011;61834;50.196;6.454;2022-09-16T20:00:34;1.00;;;0.52;;
73563;SDS011;61834;50.196;6.454;2022-09-16T20:05:13;0.77;;;0.60;;
73563;SDS011;61834;50.196;6.454;2022-09-16T20:07:38;1.17;;;0.68;;
73563;SDS011;61834;50.196;6.454;2022-09-16T20:10:04;1.00;;;0.60;;
73563;SDS011;61834;50.196;6.454;2022-09-16T20:12:36;1.70;;;0.60;;
73563;SDS011;61834;50.196;6.454;2022-09-16T20:16:50;2.47;;;0.60;;
73563;SDS011;61834;50.196;6.454;2022-09-16T20:19:17;1.23;;;0.70;;
73563;SDS011;61834;50.196;6.454;2022-09-16T20:21:43;2.35;;;0.75;;
73563;SDS011;61834;50.196;6.454;2022-09-16T20:24:14;1.20;;;0.77;;
73563;SDS011;61834;50.196;6.454;2022-09-16T20:29:09;0.52;;;0.47;;
73563;SDS011;61834;50.196;6.454;2022-09-16T20:31:36;1.23;;;0.47;;
73563;SDS011;61834;50.196;6.454;2022-09-16T20:34:02;2.20;;;0.68;;
73563;SDS011;61834;50.196;6.454;2022-09-16T20:36:29;1.23;;;0.50;;
73563;SDS011;61834;50.196;6.454;2022-09-16T20:38:57;0.90;;;0.68;;
73563;SDS011;61834;50.196;6.454;2022-09-16T20:41:25;0.82;;;0.50;;
73563;SDS011;61834;50.196;6.454;2022-09-16T20:43:53;1.10;;;0.60;;
73563;SDS011;61834;50.196;6.454;2022-09-16T20:46:22;1.75;;;0.77;;
73563;SDS011;61834;50.196;6.454;2022-09-16T20:48:52;2.17;;;0.60;;
73563;SDS011;61834;50.196;6.454;2022-09-16T20:51:25;1.67;;;0.50;;
73563;SDS011;61834;50.196;6.454;2022-09-16T20:53:53;0.98;;;0.60;;
73563;SDS011;61834;50.196;6.454;2022-09-16T20:56:29;1.60;;;0.80;;
73563;SDS011;61834;50.196;6.454;2022-09-16T20:58:56;0.95;;;0.60;;
73563;SDS011;61834;50.196;6.454;2022-09-16T21:01:24;0.70;;;0.60;;
73563;SDS011;61834;50.196;6.454;2022-09-16T21:03:57;1.42;;;0.60;;
73563;SDS011;61834;50.196;6.454;2022-09-16T21:06:25;1.33;;;0.60;;
73563;SDS011;61834;50.196;6.454;2022-09-16T21:08:53;0.95;;;0.45;;
73563;SDS011;61834;50.196;6.454;2022-09-16T21:11:20;2.13;;;0.73;;
73563;SDS011;61834;50.196;6.454;2022-09-16T21:13:51;2.05;;;0.70;;
73563;SDS011;61834;50.196;6.454;2022-09-16T21:16:18;1.25;;;0.60;;
73563;SDS011;61834;50.196;6.454;2022-09-16T21:18:44;1.30;;;0.70;;
73563;SDS011;61834;50.196;6.454;2022-09-16T21:21:11;0.73;;;0.50;;
73563;SDS011;61834;50.196;6.454;2022-09-16T21:23:44;1.35;;;0.70;;
73563;SDS011;61834;50.196;6.454;2022-09-16T21:26:24;1.35;;;0.57;;
73563;SDS011;61834;50.196;6.454;2022-09-16T21:29:00;0.80;;;0.70;;
73563;SDS011;61834;50.196;6.454;2022-09-16T21:31:29;1.45;;;0.80;;
73563;SDS011;61834;50.196;6.454;2022-09-16T21:33:59;1.27;;;0.70;;
73563;SDS011;61834;50.196;6.454;2022-09-16T21:36:27;1.67;;;0.50;;
73563;SDS011;61834;50.196;6.454;2022-09-16T21:38:54;1.25;;;0.70;;
73563;SDS011;61834;50.196;6.454;2022-09-16T21:41:20;0.88;;;0.50;;
73563;SDS011;61834;50.196;6.454;2022-09-16T21:43:47;0.98;;;0.63;;
73563;SDS011;61834;50.196;6.454;2022-09-16T21:46:19;0.57;;;0.40;;
73563;SDS011;61834;50.196;6.454;2022-09-16T21:48:47;0.60;;;0.50;;
73563;SDS011;61834;50.196;6.454;2022-09-16T21:56:34;1.80;;;0.68;;
73563;SDS011;61834;50.196;6.454;2022-09-16T21:59:01;2.30;;;0.70;;
73563;SDS011;61834;50.196;6.454;2022-09-16T22:01:30;1.00;;;0.60;;
73563;SDS011;61834;50.196;6.454;2022-09-16T22:04:08;1.88;;;0.90;;
73563;SDS011;61834;50.196;6.454;2022-09-16T22:06:36;2.08;;;0.60;;
73563;SDS011;61834;50.196;6.454;2022-09-16T22:09:02;1.13;;;0.50;;
73563;SDS011;61834;50.196;6.454;2022-09-16T22:11:31;2.03;;;0.70;;
73563;SDS011;61834;50.196;6.454;2022-09-16T22:14:03;0.70;;;0.43;;
73563;SDS011;61834;50.196;6.454;2022-09-16T22:16:31;1.58;;;0.60;;
73563;SDS011;61834;50.196;6.454;2022-09-16T22:19:03;1.20;;;0.57;;
73563;SDS011;61834;50.196;6.454;2022-09-16T22:21:36;2.00;;;0.73;;
73563;SDS011;61834;50.196;6.454;2022-09-16T22:24:05;2.42;;;0.80;;
73563;SDS011;61834;50.196;6.454;2022-09-16T22:26:34;1.25;;;0.70;;
73563;SDS011;61834;50.196;6.454;2022-09-16T22:29:01;2.33;;;0.57;;
73563;SDS011;61834;50.196;6.454;2022-09-16T22:31:31;0.60;;;0.50;;